Time;durP1;ratioP1;P1;durP2;ratioP2;P2;SDS_P1;SDS_P2;PMS_P1;PMS_P2;Temp;Humidity;BMP_temperature;BMP_pressure;BME280_temperature;BME280_humidity;BME280_pressure;Samples;Min_cycle;Max_cycle;Signal;HPM_P1;HPM_P2
2021/06/04 00:00:42;;;;;;;11.15;10.05;;;15.20;74.70;;;;;;5215047;28;20075;-71
2021/06/04 00:03:19;;;;;;;11.30;10.30;;;15.20;74.90;;;;;;5215853;28;20041;-71
2021/06/04 00:05:54;;;;;;;10.60;9.70;;;15.20;75.20;;;;;;5216005;28;20041;-70
2021/06/04 00:08:26;;;;;;;10.57;9.68;;;15.10;75.00;;;;;;5215460;28;20139;-72
2021/06/04 00:11:04;;;;;;;11.55;10.55;;;15.20;74.90;;;;;;5214591;28;20033;-71
2021/06/04 00:14:04;;;;;;;11.10;9.93;;;15.20;74.90;;;;;;5213625;28;20049;-70
2021/06/04 00:16:57;;;;;;;10.75;9.85;;;15.20;74.60;;;;;;5215684;28;20574;-71
2021/06/04 00:19:32;;;;;;;10.38;9.57;;;15.20;74.20;;;;;;5218546;28;20041;-72
2021/06/04 00:22:08;;;;;;;11.30;10.30;;;15.20;74.30;;;;;;5218134;28;20439;-71
2021/06/04 00:24:43;;;;;;;11.70;10.55;;;15.10;74.70;;;;;;5219994;28;20110;-69
2021/06/04 00:27:16;;;;;;;10.80;9.90;;;15.10;74.80;;;;;;5199405;28;20421;-70
2021/06/04 00:29:48;;;;;;;11.20;10.20;;;15.10;75.00;;;;;;5220376;28;20045;-71
2021/06/04 00:32:22;;;;;;;11.20;10.20;;;15.00;75.00;;;;;;5201062;28;20063;-72
2021/06/04 00:34:54;;;;;;;10.82;9.85;;;15.00;75.20;;;;;;5202740;28;20040;-70
2021/06/04 00:37:26;;;;;;;10.73;9.75;;;15.00;75.30;;;;;;5219535;28;20954;-71
2021/06/04 00:39:58;;;;;;;10.80;9.60;;;14.80;75.60;;;;;;5219877;28;20091;-71
2021/06/04 00:42:33;;;;;;;11.45;10.25;;;14.90;76.00;;;;;;5218411;28;20057;-71
2021/06/04 00:45:10;;;;;;;10.80;9.90;;;14.90;75.80;;;;;;5217577;28;20524;-71
2021/06/04 00:47:43;;;;;;;10.80;9.85;;;14.90;75.60;;;;;;5218256;28;20757;-71
2021/06/04 00:50:28;;;;;;;11.50;10.50;;;14.80;75.50;;;;;;5198529;28;20546;-71
2021/06/04 00:53:01;;;;;;;10.90;9.98;;;14.80;75.50;;;;;;5201334;28;20636;-71
2021/06/04 00:55:34;;;;;;;14.73;9.73;;;14.90;75.80;;;;;;5219547;28;20079;-72
2021/06/04 00:58:11;;;;;;;10.77;9.85;;;14.90;75.90;;;;;;5217758;28;20128;-71
2021/06/04 01:00:50;;;;;;;11.75;10.77;;;14.80;75.60;;;;;;5192799;28;20688;-71
2021/06/04 01:03:26;;;;;;;12.02;10.55;;;14.90;75.30;;;;;;5218346;28;20037;-72
2021/06/04 01:06:07;;;;;;;10.90;10.00;;;14.90;75.30;;;;;;5218530;28;20041;-71
2021/06/04 01:08:43;;;;;;;11.10;10.15;;;14.90;75.30;;;;;;5218009;28;20041;-71
2021/06/04 01:11:47;;;;;;;11.57;10.38;;;14.80;75.80;;;;;;5218347;28;20893;-71
2021/06/04 01:14:49;;;;;;;11.40;10.50;;;14.70;75.70;;;;;;5216968;28;20045;-71
2021/06/04 01:17:44;;;;;;;11.35;10.35;;;14.80;75.30;;;;;;5204751;28;20045;-71
2021/06/04 01:20:32;;;;;;;11.48;10.38;;;14.80;75.40;;;;;;5219144;28;20037;-71
2021/06/04 01:23:50;;;;;;;10.82;9.93;;;14.80;75.50;;;;;;5218901;28;20139;-72
2021/06/04 01:26:29;;;;;;;11.65;10.65;;;14.80;75.30;;;;;;5198652;28;20048;-72
2021/06/04 01:29:08;;;;;;;11.43;10.52;;;14.80;75.40;;;;;;5191940;28;20053;-72
2021/06/04 01:31:50;;;;;;;11.52;10.50;;;14.70;75.00;;;;;;5218319;28;20069;-72
2021/06/04 01:34:26;;;;;;;11.02;10.13;;;14.70;75.30;;;;;;5218610;28;20178;-72
2021/06/04 01:37:09;;;;;;;11.02;10.10;;;14.70;75.60;;;;;;5198219;28;20083;-72
2021/06/04 01:39:55;;;;;;;11.55;10.55;;;14.70;75.80;;;;;;5198617;28;20520;-71
2021/06/04 01:42:34;;;;;;;11.80;10.70;;;14.70;75.20;;;;;;5215910;28;20102;-73
2021/06/04 01:45:16;;;;;;;11.60;10.40;;;14.70;75.60;;;;;;5199575;28;20757;-72
2021/06/04 01:47:54;;;;;;;11.02;10.13;;;14.70;75.30;;;;;;5218171;28;20496;-72
2021/06/04 01:50:35;;;;;;;12.15;10.95;;;14.70;75.60;;;;;;5216552;28;20051;-72
2021/06/04 01:53:20;;;;;;;11.55;10.55;;;14.60;76.20;;;;;;5217919;28;20099;-71
2021/06/04 01:55:59;;;;;;;11.43;10.52;;;14.50;76.70;;;;;;5193528;28;20833;-71
2021/06/04 01:58:53;;;;;;;11.63;10.63;;;14.40;76.60;;;;;;5218647;28;20059;-72
2021/06/04 02:01:41;;;;;;;11.55;10.45;;;14.50;76.50;;;;;;5198650;28;20114;-72
2021/06/04 02:04:31;;;;;;;11.40;10.43;;;14.50;76.30;;;;;;5217523;28;20042;-72
2021/06/04 02:07:06;;;;;;;11.32;10.32;;;14.50;76.60;;;;;;5192734;28;20539;-72
2021/06/04 02:09:39;;;;;;;11.18;10.27;;;14.50;75.80;;;;;;5217509;28;20049;-72
2021/06/04 02:12:23;;;;;;;11.07;10.18;;;14.40;75.80;;;;;;5197608;28;20049;-72
2021/06/04 02:15:26;;;;;;;11.80;10.70;;;14.40;76.50;;;;;;5196034;28;20052;-72
2021/06/04 02:18:16;;;;;;;11.15;10.25;;;14.30;76.40;;;;;;5216747;28;20053;-73
2021/06/04 02:21:04;;;;;;;11.75;10.73;;;14.30;76.40;;;;;;5217086;28;20111;-72
2021/06/04 02:23:51;;;;;;;10.82;9.93;;;14.30;76.60;;;;;;5180900;28;20052;-71
2021/06/04 02:26:49;;;;;;;11.48;10.52;;;14.30;76.80;;;;;;5215861;28;20044;-72
2021/06/04 02:29:46;;;;;;;11.20;10.30;;;14.30;76.70;;;;;;5216904;28;20061;-72
2021/06/04 02:32:25;;;;;;;12.27;11.27;;;14.30;76.10;;;;;;5191509;28;20052;-72
2021/06/04 02:35:16;;;;;;;12.35;11.25;;;14.40;75.50;;;;;;5198593;28;20485;-72
2021/06/04 02:37:55;;;;;;;11.83;10.83;;;14.40;75.80;;;;;;5200023;28;20190;-73
2021/06/04 02:40:39;;;;;;;11.25;10.35;;;14.30;76.60;;;;;;5199185;28;20044;-72
2021/06/04 02:43:25;;;;;;;11.40;10.40;;;14.20;77.30;;;;;;5215795;28;20072;-70
2021/06/04 02:46:11;;;;;;;11.55;10.65;;;14.20;77.00;;;;;;5214998;28;20045;-72
2021/06/04 02:48:50;;;;;;;11.75;10.75;;;14.10;76.30;;;;;;5200973;28;20043;-70
2021/06/04 02:51:48;;;;;;;12.40;11.15;;;14.20;76.20;;;;;;5195131;28;20056;-72
2021/06/04 02:54:26;;;;;;;11.30;10.27;;;14.10;77.10;;;;;;5215698;28;20051;-71
2021/06/04 02:57:03;;;;;;;12.25;11.25;;;14.10;76.90;;;;;;5216626;28;20044;-71
2021/06/04 02:59:40;;;;;;;11.70;10.43;;;14.10;77.40;;;;;;5217293;28;20116;-72
2021/06/04 03:02:23;;;;;;;11.63;10.63;;;14.00;77.60;;;;;;5214896;28;20132;-70
2021/06/04 03:05:10;;;;;;;12.63;10.93;;;14.00;77.80;;;;;;5217842;28;20676;-71
2021/06/04 03:07:43;;;;;;;11.88;10.88;;;14.00;77.70;;;;;;5198934;28;20108;-71
2021/06/04 03:10:38;;;;;;;11.18;10.27;;;14.00;77.20;;;;;;5195709;28;20049;-71
2021/06/04 03:13:16;;;;;;;11.75;10.68;;;14.00;77.10;;;;;;5199373;28;20037;-71
2021/06/04 03:15:54;;;;;;;11.38;10.43;;;14.00;76.90;;;;;;5215990;28;20037;-72
2021/06/04 03:18:38;;;;;;;11.32;10.43;;;14.00;77.10;;;;;;5182793;28;20516;-70
2021/06/04 03:21:36;;;;;;;12.35;11.15;;;14.00;77.30;;;;;;5195950;28;20582;-72
2021/06/04 03:24:12;;;;;;;11.98;10.98;;;13.90;76.40;;;;;;5195112;28;20623;-71
2021/06/04 03:26:44;;;;;;;12.00;10.90;;;13.80;76.10;;;;;;5198390;28;20820;-71
2021/06/04 03:29:19;;;;;;;12.32;10.93;;;13.80;76.90;;;;;;5198492;28;20047;-71
2021/06/04 03:31:58;;;;;;;11.85;10.95;;;13.80;77.70;;;;;;5213651;28;20130;-70
2021/06/04 03:34:31;;;;;;;11.80;10.80;;;13.70;78.30;;;;;;5198278;28;20041;-71
2021/06/04 03:37:06;;;;;;;11.15;10.25;;;13.70;78.20;;;;;;5191086;28;20582;-71
2021/06/04 03:39:43;;;;;;;11.38;10.38;;;13.70;78.40;;;;;;5200763;28;20429;-71
2021/06/04 03:42:25;;;;;;;11.23;10.32;;;13.80;78.20;;;;;;5215280;28;20552;-71
2021/06/04 03:44:59;;;;;;;12.00;10.90;;;13.80;78.30;;;;;;5215835;28;20515;-71
2021/06/04 03:47:34;;;;;;;11.93;10.82;;;13.80;78.00;;;;;;5215298;28;20416;-70
2021/06/04 03:50:09;;;;;;;14.95;11.30;;;13.80;77.30;;;;;;5181392;28;20056;-71
2021/06/04 03:52:41;;;;;;;11.35;10.35;;;13.70;76.80;;;;;;5188626;28;20041;-72
2021/06/04 03:55:17;;;;;;;11.20;10.30;;;13.70;77.20;;;;;;5215798;28;20110;-71
2021/06/04 03:57:50;;;;;;;12.13;10.90;;;13.70;78.90;;;;;;5216411;28;20068;-71
2021/06/04 04:00:27;;;;;;;11.15;10.25;;;13.70;77.80;;;;;;5214290;28;20175;-71
2021/06/04 04:02:59;;;;;;;11.57;10.57;;;13.70;77.90;;;;;;5213674;28;20049;-71
2021/06/04 04:05:33;;;;;;;11.13;10.13;;;13.70;78.00;;;;;;5214607;28;20397;-72
2021/06/04 04:08:06;;;;;;;11.13;10.10;;;13.70;77.80;;;;;;5215817;28;20627;-71
2021/06/04 04:10:38;;;;;;;11.40;10.30;;;13.80;78.60;;;;;;5198047;28;20094;-71
2021/06/04 04:13:13;;;;;;;10.52;9.70;;;13.80;78.40;;;;;;5214260;28;20069;-71
2021/06/04 04:15:46;;;;;;;11.73;10.73;;;13.70;78.80;;;;;;5214462;28;20037;-72
2021/06/04 04:18:20;;;;;;;12.68;10.88;;;13.70;77.90;;;;;;5199555;28;20044;-72
2021/06/04 04:20:55;;;;;;;11.60;10.70;;;13.80;77.20;;;;;;5213242;28;20684;-71
2021/06/04 04:23:35;;;;;;;12.02;10.93;;;13.90;77.10;;;;;;5213322;28;20041;-71
2021/06/04 04:26:09;;;;;;;12.00;10.90;;;13.80;76.60;;;;;;5215390;28;20685;-70
2021/06/04 04:28:42;;;;;;;12.00;10.95;;;13.80;76.50;;;;;;5216294;28;20044;-71
2021/06/04 04:31:23;;;;;;;12.57;11.30;;;13.80;76.80;;;;;;5214832;28;20048;-71
2021/06/04 04:33:56;;;;;;;11.55;10.52;;;13.90;76.70;;;;;;5216022;28;20562;-71
2021/06/04 04:36:32;;;;;;;12.20;11.13;;;14.00;76.30;;;;;;5214658;28;20158;-71
2021/06/04 04:39:11;;;;;;;11.98;10.98;;;14.10;76.60;;;;;;5215812;28;20079;-70
2021/06/04 04:41:44;;;;;;;11.98;10.85;;;14.20;76.30;;;;;;5215407;28;20527;-71
2021/06/04 04:44:18;;;;;;;12.15;11.15;;;14.30;76.80;;;;;;5215619;28;20091;-70
2021/06/04 04:46:50;;;;;;;11.93;10.93;;;14.40;79.80;;;;;;5216160;28;20560;-71
2021/06/04 04:49:22;;;;;;;12.48;11.38;;;14.50;79.30;;;;;;5198406;28;20048;-70
2021/06/04 04:51:54;;;;;;;13.00;11.90;;;14.70;80.50;;;;;;5215783;28;20072;-71
2021/06/04 04:54:27;;;;;;;12.57;11.48;;;14.80;79.20;;;;;;5197889;28;20052;-71
2021/06/04 04:56:59;;;;;;;13.07;11.93;;;14.90;77.60;;;;;;5214158;28;20072;-72
2021/06/04 04:59:32;;;;;;;13.07;11.77;;;15.00;77.60;;;;;;5215754;28;20151;-72
2021/06/04 05:02:05;;;;;;;12.52;11.43;;;15.10;77.70;;;;;;5215185;28;20048;-71
2021/06/04 05:04:37;;;;;;;12.93;11.82;;;15.20;77.50;;;;;;5219328;28;20048;-70
2021/06/04 05:07:09;;;;;;;13.43;12.23;;;15.40;78.10;;;;;;5218945;28;20050;-70
2021/06/04 05:09:41;;;;;;;12.60;11.60;;;15.50;77.20;;;;;;5219725;28;20037;-69
2021/06/04 05:12:13;;;;;;;12.95;11.68;;;15.60;77.60;;;;;;5218493;28;20738;-71
2021/06/04 05:14:46;;;;;;;12.23;11.23;;;15.80;77.00;;;;;;5220669;28;20035;-71
2021/06/04 05:17:18;;;;;;;13.00;11.90;;;15.90;76.60;;;;;;5216442;28;20516;-71
2021/06/04 05:19:50;;;;;;;12.93;11.55;;;15.90;76.70;;;;;;5218337;28;20099;-73
2021/06/04 05:22:22;;;;;;;12.18;11.18;;;16.00;75.50;;;;;;5216788;28;20114;-71
2021/06/04 05:24:54;;;;;;;12.77;11.40;;;16.00;78.00;;;;;;5218894;28;20102;-72
2021/06/04 05:27:26;;;;;;;12.68;11.57;;;16.10;78.10;;;;;;5218664;28;20045;-71
2021/06/04 05:29:58;;;;;;;12.75;11.43;;;16.10;78.50;;;;;;5217314;28;20131;-72
2021/06/04 05:32:29;;;;;;;12.95;11.85;;;16.20;78.70;;;;;;5218284;28;20048;-71
2021/06/04 05:35:04;;;;;;;13.02;12.00;;;16.30;78.00;;;;;;5185024;28;20037;-72
2021/06/04 05:37:36;;;;;;;12.23;11.23;;;16.30;78.30;;;;;;5218863;28;20107;-72
2021/06/04 05:40:16;;;;;;;12.90;11.80;;;16.30;78.70;;;;;;5218146;28;20128;-72
2021/06/04 05:42:48;;;;;;;12.97;11.87;;;16.40;81.20;;;;;;5217124;28;20120;-72
2021/06/04 05:45:22;;;;;;;13.18;11.85;;;16.50;79.50;;;;;;5218128;28;20116;-72
2021/06/04 05:47:54;;;;;;;12.68;11.57;;;16.50;78.30;;;;;;5201764;28;20100;-72
2021/06/04 05:50:35;;;;;;;12.35;11.32;;;16.50;78.70;;;;;;5218278;28;20073;-71
2021/06/04 05:53:10;;;;;;;32.03;14.02;;;16.50;77.30;;;;;;5216739;28;20041;-72
2021/06/04 05:55:43;;;;;;;23.30;13.07;;;16.50;77.30;;;;;;5218413;28;20126;-71
2021/06/04 05:58:18;;;;;;;14.35;12.70;;;16.60;76.90;;;;;;5218457;28;20060;-72
2021/06/04 06:00:56;;;;;;;12.75;11.63;;;16.60;77.40;;;;;;5217287;28;20642;-71
2021/06/04 06:03:32;;;;;;;12.77;11.48;;;16.60;77.10;;;;;;5217373;28;20040;-71
2021/06/04 06:06:05;;;;;;;12.15;11.15;;;16.60;78.30;;;;;;5176195;28;20891;-71
2021/06/04 06:08:37;;;;;;;13.32;11.98;;;16.60;76.90;;;;;;5217465;28;20095;-71
2021/06/04 06:11:10;;;;;;;13.35;12.25;;;16.70;78.40;;;;;;5195679;28;20586;-72
2021/06/04 06:13:43;;;;;;;14.30;12.50;;;16.70;77.50;;;;;;5215566;28;20447;-72
2021/06/04 06:16:15;;;;;;;13.88;12.57;;;16.80;78.10;;;;;;5215621;28;20052;-72
2021/06/04 06:18:47;;;;;;;13.43;12.32;;;16.80;78.60;;;;;;5217012;28;20150;-72
2021/06/04 06:21:19;;;;;;;13.23;12.13;;;16.90;79.40;;;;;;5216564;28;20048;-72
2021/06/04 06:23:51;;;;;;;13.00;11.80;;;17.00;79.80;;;;;;5217304;28;20055;-71
2021/06/04 06:26:28;;;;;;;11.93;10.93;;;17.00;76.90;;;;;;5197721;28;20586;-71
2021/06/04 06:29:01;;;;;;;12.48;11.32;;;17.10;74.70;;;;;;5217484;28;20628;-71
2021/06/04 06:31:37;;;;;;;12.35;11.10;;;17.10;74.40;;;;;;5216637;28;20581;-72
2021/06/04 06:34:10;;;;;;;12.15;11.13;;;17.00;74.20;;;;;;5216925;28;20045;-71
2021/06/04 06:36:44;;;;;;;12.40;11.30;;;17.00;73.30;;;;;;5218377;28;20041;-71
2021/06/04 06:39:27;;;;;;;13.15;11.45;;;17.00;74.10;;;;;;5217935;28;20037;-71
2021/06/04 06:42:03;;;;;;;12.52;11.52;;;17.10;74.90;;;;;;5216584;28;20037;-70
2021/06/04 06:44:36;;;;;;;13.35;12.25;;;17.20;76.00;;;;;;5217681;28;20041;-72
2021/06/04 06:47:08;;;;;;;12.55;11.55;;;17.30;77.50;;;;;;5217178;28;20056;-72
2021/06/04 06:49:40;;;;;;;12.90;11.70;;;17.50;76.20;;;;;;5217364;28;20654;-71
2021/06/04 06:52:12;;;;;;;13.43;12.15;;;17.60;75.80;;;;;;5192465;28;20045;-72
2021/06/04 06:54:44;;;;;;;13.13;12.02;;;17.70;76.20;;;;;;5199699;28;20436;-72
2021/06/04 06:57:15;;;;;;;12.90;11.80;;;17.80;76.60;;;;;;5216852;28;20069;-71
2021/06/04 06:59:47;;;;;;;13.18;11.98;;;17.90;76.40;;;;;;5217546;28;20099;-72
2021/06/04 07:02:22;;;;;;;14.15;12.90;;;17.90;75.50;;;;;;5195658;28;20107;-73
2021/06/04 07:04:54;;;;;;;14.07;12.85;;;18.00;77.40;;;;;;5216423;28;20058;-71
2021/06/04 07:07:26;;;;;;;14.13;13.02;;;18.20;77.40;;;;;;5217391;28;20083;-71
2021/06/04 07:09:57;;;;;;;13.88;12.77;;;18.20;74.80;;;;;;5215954;28;20061;-71
2021/06/04 07:12:29;;;;;;;14.63;13.30;;;18.40;76.40;;;;;;5216033;28;20460;-71
2021/06/04 07:15:02;;;;;;;14.45;13.25;;;18.50;77.10;;;;;;5215075;28;20045;-71
2021/06/04 07:17:34;;;;;;;14.45;13.25;;;18.60;76.80;;;;;;5217574;28;20090;-72
2021/06/04 07:20:09;;;;;;;14.50;13.10;;;18.60;76.00;;;;;;5217140;28;20540;-72
2021/06/04 07:22:41;;;;;;;14.50;13.20;;;18.70;74.90;;;;;;5216411;28;20633;-71
2021/06/04 07:25:16;;;;;;;14.43;13.20;;;18.80;73.70;;;;;;5216070;28;20516;-70
2021/06/04 07:27:49;;;;;;;14.52;13.32;;;18.80;73.70;;;;;;5216644;28;20056;-71
2021/06/04 07:30:30;;;;;;;15.10;13.77;;;18.80;74.70;;;;;;5216632;28;20114;-70
2021/06/04 07:33:06;;;;;;;14.82;13.43;;;18.90;73.30;;;;;;5215863;28;20049;-72
2021/06/04 07:35:40;;;;;;;14.38;13.18;;;19.00;75.10;;;;;;5217224;28;20114;-71
2021/06/04 07:38:12;;;;;;;15.07;13.75;;;19.10;73.80;;;;;;5216089;28;20069;-70
2021/06/04 07:40:44;;;;;;;14.95;13.75;;;19.20;76.40;;;;;;5216711;28;20459;-71
2021/06/04 07:43:24;;;;;;;14.05;12.88;;;19.30;73.80;;;;;;5197275;28;20162;-72
2021/06/04 07:45:56;;;;;;;;;;;19.50;72.50;;;;;;5216413;28;20123;-72
2021/06/04 07:48:29;;;;;;;14.43;13.23;;;19.70;72.70;;;;;;5215976;28;20392;-71
2021/06/04 07:51:04;;;;;;;14.57;13.43;;;19.80;71.30;;;;;;5215632;28;20297;-73
2021/06/04 07:53:39;;;;;;;14.45;13.15;;;20.00;71.50;;;;;;5216288;28;20570;-72
2021/06/04 07:56:15;;;;;;;14.00;12.77;;;20.30;72.60;;;;;;5215484;28;20107;-73
2021/06/04 07:58:48;;;;;;;15.20;14.00;;;20.50;67.60;;;;;;5197672;28;20059;-72
2021/06/04 08:01:20;;;;;;;15.27;14.07;;;20.70;70.20;;;;;;5214879;28;20120;-72
2021/06/04 08:03:53;;;;;;;13.88;12.77;;;20.80;70.80;;;;;;5215237;28;20047;-72
2021/06/04 08:06:25;;;;;;;14.02;12.75;;;20.90;66.90;;;;;;5195706;28;20132;-72
2021/06/04 08:08:57;;;;;;;14.50;13.38;;;21.00;63.20;;;;;;5215518;28;20151;-71
2021/06/04 08:11:38;;;;;;;14.25;13.05;;;21.20;66.00;;;;;;5212642;28;20053;-71
2021/06/04 08:14:13;;;;;;;14.32;12.98;;;21.40;64.10;;;;;;5216158;28;20048;-71
2021/06/04 08:16:47;;;;;;;14.30;13.05;;;21.60;62.10;;;;;;5215611;28;20045;-71
2021/06/04 08:19:19;;;;;;;14.35;13.30;;;21.80;67.50;;;;;;5216414;28;20041;-72
2021/06/04 08:21:54;;;;;;;14.90;13.70;;;21.90;65.60;;;;;;5215537;28;20504;-72
2021/06/04 08:24:30;;;;;;;14.85;13.57;;;22.10;67.00;;;;;;5216567;28;20044;-72
2021/06/04 08:27:05;;;;;;;14.02;12.93;;;22.20;62.40;;;;;;5213936;28;20053;-73
2021/06/04 08:29:37;;;;;;;14.18;13.07;;;22.30;62.50;;;;;;5216752;28;20128;-72
2021/06/04 08:32:11;;;;;;;14.40;13.30;;;22.40;62.20;;;;;;5215053;28;20041;-71
2021/06/04 08:34:43;;;;;;;14.20;12.90;;;22.50;63.90;;;;;;5216823;28;20036;-73
2021/06/04 08:37:15;;;;;;;14.27;13.18;;;22.70;66.30;;;;;;5215850;28;20516;-73
2021/06/04 08:39:47;;;;;;;15.18;13.98;;;22.70;59.50;;;;;;5219863;28;20047;-72
2021/06/04 08:42:31;;;;;;;14.57;13.48;;;22.80;63.30;;;;;;5218626;28;20090;-72
2021/06/04 08:45:12;;;;;;;15.07;13.88;;;22.90;57.60;;;;;;5219891;28;20072;-72
2021/06/04 08:47:49;;;;;;;14.57;13.48;;;23.20;62.20;;;;;;5202019;28;20716;-72
2021/06/04 08:50:46;;;;;;;14.25;13.20;;;23.40;58.10;;;;;;5219553;28;20053;-72
2021/06/04 08:53:27;;;;;;;14.35;13.23;;;23.50;57.80;;;;;;5219255;28;20121;-73
2021/06/04 08:56:07;;;;;;;14.43;13.32;;;23.70;62.40;;;;;;5218009;28;20069;-72
2021/06/04 08:58:46;;;;;;;14.15;13.05;;;23.90;57.30;;;;;;5196256;28;20029;-72
2021/06/04 09:01:27;;;;;;;14.50;13.20;;;24.00;60.30;;;;;;5219258;28;20048;-71
2021/06/04 09:04:05;;;;;;;14.38;13.25;;;23.90;54.20;;;;;;5218793;28;20041;-71
2021/06/04 09:07:06;;;;;;;14.02;12.93;;;24.10;56.70;;;;;;5218344;28;20049;-70
2021/06/04 09:09:38;;;;;;;15.55;14.23;;;24.20;58.00;;;;;;5202067;28;20231;-71
2021/06/04 09:12:19;;;;;;;14.95;13.68;;;24.40;53.50;;;;;;5217956;28;20080;-70
2021/06/04 09:14:53;;;;;;;15.00;13.90;;;24.50;55.50;;;;;;5218005;28;20832;-72
2021/06/04 09:17:57;;;;;;;15.20;14.00;;;24.60;50.40;;;;;;5219110;28;20136;-73
2021/06/04 09:20:34;;;;;;;14.90;13.80;;;24.60;60.50;;;;;;5202246;28;20064;-72
2021/06/04 09:23:10;;;;;;;15.38;14.05;;;24.80;55.60;;;;;;5194882;28;20057;-72
2021/06/04 09:25:42;;;;;;;15.10;14.00;;;25.10;56.10;;;;;;5199076;28;20049;-71
2021/06/04 09:28:23;;;;;;;15.48;14.38;;;25.20;57.80;;;;;;5219511;28;20641;-72
2021/06/04 09:31:17;;;;;;;15.98;14.57;;;25.50;58.40;;;;;;5197984;28;20045;-73
2021/06/04 09:33:53;;;;;;;16.15;14.85;;;25.70;59.30;;;;;;5218397;28;20486;-72
2021/06/04 09:36:41;;;;;;;16.02;14.82;;;25.80;58.10;;;;;;5218567;28;20106;-72
2021/06/04 09:39:33;;;;;;;16.00;14.80;;;25.90;54.20;;;;;;5220039;28;20116;-71
2021/06/04 09:42:26;;;;;;;15.75;14.30;;;26.00;58.10;;;;;;5217352;28;20045;-72
2021/06/04 09:44:59;;;;;;;15.05;13.95;;;26.00;53.20;;;;;;5218509;28;20896;-72
2021/06/04 09:47:47;;;;;;;15.38;14.07;;;26.10;49.70;;;;;;5218206;28;20471;-73
2021/06/04 09:50:33;;;;;;;15.48;14.18;;;26.10;54.10;;;;;;5216344;28;20444;-72
2021/06/04 09:53:20;;;;;;;15.05;13.85;;;26.20;52.90;;;;;;5216836;28;20045;-71
2021/06/04 09:56:12;;;;;;;15.32;14.13;;;26.30;51.30;;;;;;5200587;28;20037;-72
2021/06/04 09:58:49;;;;;;;15.68;14.20;;;26.50;52.50;;;;;;5218057;28;20040;-72
2021/06/04 10:01:26;;;;;;;15.82;14.45;;;26.50;52.40;;;;;;5215171;28;20572;-72
2021/06/04 10:04:06;;;;;;;16.20;14.98;;;26.20;52.90;;;;;;5218056;28;20040;-72
2021/06/04 10:06:49;;;;;;;15.68;14.38;;;26.20;52.80;;;;;;5215578;28;20132;-72
2021/06/04 10:09:43;;;;;;;15.52;14.35;;;26.10;54.50;;;;;;5219107;28;20041;-73
2021/06/04 10:12:19;;;;;;;15.13;13.82;;;26.00;55.60;;;;;;5191845;28;20060;-71
2021/06/04 10:14:57;;;;;;;15.38;14.00;;;25.90;56.80;;;;;;5195417;28;20056;-71
2021/06/04 10:18:09;;;;;;;15.00;13.80;;;25.80;55.30;;;;;;5199367;28;20053;-72
2021/06/04 10:20:46;;;;;;;14.77;13.57;;;25.70;51.30;;;;;;5198996;28;20459;-72
2021/06/04 10:23:24;;;;;;;14.50;13.38;;;25.50;55.40;;;;;;5180810;28;20091;-72
2021/06/04 10:26:01;;;;;;;14.95;13.60;;;25.50;56.20;;;;;;5216382;28;20070;-72
2021/06/04 10:28:38;;;;;;;14.75;13.65;;;25.40;56.40;;;;;;5218489;28;20108;-72
2021/06/04 10:31:16;;;;;;;14.85;13.55;;;25.30;55.80;;;;;;5196407;28;20124;-73
2021/06/04 10:33:55;;;;;;;14.48;13.38;;;25.20;56.20;;;;;;5218117;28;20041;-72
2021/06/04 10:36:32;;;;;;;14.55;13.35;;;25.20;53.10;;;;;;5200206;28;20642;-72
2021/06/04 10:39:17;;;;;;;14.98;13.77;;;25.10;57.20;;;;;;5216806;28;20053;-72
2021/06/04 10:42:20;;;;;;;14.35;13.13;;;25.20;54.00;;;;;;5216782;28;20069;-71
2021/06/04 10:45:19;;;;;;;14.23;13.15;;;25.10;55.70;;;;;;5216705;28;20063;-72
2021/06/04 10:47:57;;;;;;;15.15;13.85;;;25.20;58.10;;;;;;5198935;28;20535;-72
2021/06/04 10:50:36;;;;;;;14.43;13.32;;;25.10;55.30;;;;;;5215549;28;20386;-72
2021/06/04 10:53:31;;;;;;;14.75;13.55;;;25.00;55.30;;;;;;5215937;28;20083;-72
2021/06/04 10:56:30;;;;;;;14.55;13.45;;;24.90;57.70;;;;;;5215796;28;20122;-72
2021/06/04 10:59:43;;;;;;;15.25;13.85;;;24.80;53.00;;;;;;5195705;28;20124;-72
2021/06/04 11:02:40;;;;;;;14.70;13.50;;;24.60;52.60;;;;;;5215614;28;20069;-72
2021/06/04 11:05:42;;;;;;;14.43;13.23;;;24.30;53.70;;;;;;5215780;28;20041;-72
2021/06/04 11:09:16;;;;;;;14.45;13.35;;;24.30;56.70;;;;;;5170951;28;20572;-72
2021/06/04 11:12:03;;;;;;;14.65;13.55;;;24.10;52.70;;;;;;5150369;28;20478;-71
2021/06/04 11:14:42;;;;;;;15.60;14.40;;;24.00;54.00;;;;;;5216984;28;20036;-72
2021/06/04 11:17:28;;;;;;;15.23;13.93;;;23.90;53.70;;;;;;5216566;28;20486;-73
2021/06/04 11:20:12;;;;;;;14.80;13.55;;;23.90;57.00;;;;;;5216462;28;20095;-73
2021/06/04 11:22:47;;;;;;;14.57;13.38;;;23.80;57.90;;;;;;5216245;28;20174;-72
2021/06/04 11:25:39;;;;;;;14.25;13.05;;;23.80;59.40;;;;;;5200190;28;20076;-72
2021/06/04 11:28:40;;;;;;;14.27;13.18;;;23.80;58.40;;;;;;5215999;28;20120;-72
2021/06/04 11:31:44;;;;;;;14.45;13.35;;;23.70;57.70;;;;;;5214468;28;20953;-72
2021/06/04 11:34:54;;;;;;;15.02;13.73;;;23.70;59.30;;;;;;5207802;28;20053;-72
2021/06/04 11:37:26;;;;;;;14.40;13.20;;;23.80;60.90;;;;;;5198763;28;20053;-72
2021/06/04 11:40:10;;;;;;;14.88;13.57;;;24.00;63.00;;;;;;5215577;28;20048;-71
2021/06/04 11:42:54;;;;;;;15.10;13.90;;;24.20;57.00;;;;;;5214255;28;20491;-72
2021/06/04 11:45:29;;;;;;;14.88;13.57;;;24.20;58.70;;;;;;5214200;28;20087;-72
2021/06/04 11:48:27;;;;;;;14.80;13.60;;;24.20;55.10;;;;;;5215996;28;20178;-72
2021/06/04 11:51:17;;;;;;;14.77;13.48;;;24.30;56.60;;;;;;5203583;28;20045;-72
2021/06/04 11:53:53;;;;;;;15.10;13.82;;;24.30;53.80;;;;;;5191839;28;20574;-73
2021/06/04 11:56:42;;;;;;;14.40;13.30;;;24.40;55.70;;;;;;5214383;28;20091;-72
2021/06/04 11:59:46;;;;;;;14.98;13.70;;;24.60;54.70;;;;;;5216980;28;20071;-73
2021/06/04 12:02:27;;;;;;;15.07;13.73;;;24.70;56.10;;;;;;5215262;28;20076;-72
2021/06/04 12:05:14;;;;;;;14.52;13.27;;;24.70;53.40;;;;;;5216621;28;20059;-71
2021/06/04 12:07:47;;;;;;;13.80;12.60;;;24.90;56.90;;;;;;5217257;28;20077;-72
2021/06/04 12:11:00;;;;;;;14.02;12.93;;;25.00;53.90;;;;;;5215304;28;20119;-73
2021/06/04 12:13:40;;;;;;;15.40;13.93;;;25.00;56.00;;;;;;5213822;28;20036;-72
2021/06/04 12:16:31;;;;;;;;;;;25.20;57.20;;;;;;5216733;28;20126;-71
2021/06/04 12:19:04;;;;;;;15.07;13.77;;;25.20;57.40;;;;;;5214448;28;19940;-72
2021/06/04 12:21:39;;;;;;;15.73;14.32;;;25.30;58.50;;;;;;5196371;28;20136;-72
2021/06/04 12:24:20;;;;;;;15.57;14.15;;;25.30;57.30;;;;;;5216490;28;20439;-71
2021/06/04 12:26:54;;;;;;;16.05;14.75;;;25.40;59.00;;;;;;5216271;28;20060;-72
2021/06/04 12:29:26;;;;;;;16.67;15.32;;;25.60;56.80;;;;;;5216251;28;20988;-71
2021/06/04 12:32:09;;;;;;;16.10;14.90;;;25.80;57.10;;;;;;5214450;28;20065;-71
2021/06/04 12:34:41;;;;;;;16.55;15.15;;;25.90;53.50;;;;;;5214059;28;20637;-72
2021/06/04 12:37:20;;;;;;;16.33;14.93;;;26.00;56.30;;;;;;5214918;28;20159;-72
2021/06/04 12:40:00;;;;;;;16.83;15.52;;;25.90;57.60;;;;;;5216608;28;20577;-72
2021/06/04 12:42:44;;;;;;;16.48;15.18;;;25.90;56.80;;;;;;5197309;28;20052;-73
2021/06/04 12:45:16;;;;;;;16.60;15.20;;;26.00;59.50;;;;;;5214803;28;20045;-72
2021/06/04 12:47:53;;;;;;;18.15;16.58;;;26.00;56.60;;;;;;5198140;28;20060;-73
2021/06/04 12:50:42;;;;;;;17.92;16.15;;;26.00;58.30;;;;;;5190844;28;20398;-73
2021/06/04 12:53:17;;;;;;;16.70;15.30;;;26.10;55.30;;;;;;5214045;28;20098;-73
2021/06/04 12:55:57;;;;;;;17.35;15.75;;;26.20;57.50;;;;;;5213695;28;20110;-73
2021/06/04 12:58:35;;;;;;;17.05;15.75;;;26.10;56.80;;;;;;5213993;28;20040;-72
2021/06/04 13:01:15;;;;;;;17.77;16.27;;;26.20;57.20;;;;;;5214120;28;20038;-71
2021/06/04 13:04:14;;;;;;;16.55;15.35;;;26.10;57.00;;;;;;5216515;28;20504;-72
2021/06/04 13:06:53;;;;;;;17.60;16.00;;;26.10;56.00;;;;;;5209845;28;20052;-72
2021/06/04 13:09:32;;;;;;;17.13;15.82;;;26.10;57.50;;;;;;5216803;28;20033;-72
2021/06/04 13:12:27;;;;;;;17.55;15.98;;;26.10;55.30;;;;;;5213359;28;20461;-71
2021/06/04 13:15:13;;;;;;;17.15;15.65;;;26.40;56.90;;;;;;5196766;28;20029;-71
2021/06/04 13:17:58;;;;;;;17.63;16.10;;;26.60;52.90;;;;;;5213171;28;20073;-71
2021/06/04 13:20:33;;;;;;;17.88;16.40;;;26.60;56.30;;;;;;5214482;28;20120;-71
2021/06/04 13:23:10;;;;;;;17.60;15.98;;;26.70;55.80;;;;;;5215708;28;20041;-71
2021/06/04 13:25:44;;;;;;;16.92;15.52;;;26.50;52.30;;;;;;5217785;28;20111;-71
2021/06/04 13:28:26;;;;;;;17.23;15.82;;;26.30;52.40;;;;;;5219849;28;20041;-71
2021/06/04 13:31:03;;;;;;;17.02;15.63;;;26.00;52.60;;;;;;5217805;28;20077;-71